Tiempo atmosférico en la estación meteorológica de Alforja, Tarragona (406 m.)

Fecha
DESCASC
Temp. máxima en grados centígrados (hora)
DESCASC
Temp. mínima en grados centígrados (hora)
DESCASC
Temp. media en grados centígrados
DESCASC
Racha de viento máxima en m/sg (hora)
DESCASC
Velocidad máxima media en intervalos de 10 minutos(hora)
DESCASC
Precipitaciones diarias en mm
DESCASC
Precipitaciones de 00:00 a 06:00 en mm
DESCASC
Precipitaciones de 06:00 a 12:00 en mm
DESCASC
Precipitaciones de 12:00 a 18:00 en mm
DESCASC
Precipitaciones de 18:00 a 24:00 en mm
DESCASC
17-09-2017 24 (16:30) 10.8 (08:10) 17.4 9.44 (06:00) 5.28 (04:10) 0 0 0 0 0
16-09-2017 20 (17:00) 8.6 (00:10) 14.3 14.44 (07:30) 8.61 (09:50) 0 0 0 0 0
15-09-2017 17.7 (00:00) 8.8 (23:59) 13.3 13.89 (14:30) 6.94 (15:00) 10.6 0 2.4 8 0.2
14-09-2017 29.1 (16:40) 16.9 (00:00) 23 13.33 (15:30) 7.22 (15:30) 0 0 0 0 0
13-09-2017 28.6 (14:40) 13.4 (00:00) 21 8.61 (14:50) 4.44 (09:30) 0 0 0 0 0
12-09-2017 24.9 (16:00) 15.2 (00:00) 20 11.67 (15:20) 7.22 (12:10) 0 0 0 0 0
11-09-2017 28.8 (15:30) 17.3 (00:00) 23 18.33 (13:20) 10 (02:20) 0 0 0 0 0
10-09-2017 23.8 (16:20) 12 (00:00) 17.9 16.39 (01:30) 8.61 (01:30) 0 0 0 0 0
09-09-2017 20.6 (09:00) 15.1 (00:00) 17.9 15 (11:10) 9.44 (11:00) 3.4 0 0 3.4 0
08-09-2017 28.9 (16:10) 13.5 (00:00) 21.2 10.28 (03:40) 6.39 (03:40) 0 0 0 0 0
07-09-2017 26.7 (16:50) 13.5 (00:00) 20.1 13.33 (04:20) 8.61 (03:40) 0 0 0 0 0
06-09-2017 30.2 (14:40) 17.2 (00:00) 23.7 10.28 (08:30) 6.11 (09:00) 0 0 0 0 0
05-09-2017 28.9 (14:50) 15.3 (00:00) 22.1 7.5 (14:00) 3.33 (13:40) 0 0 0 0 0
04-09-2017 26.1 (12:20) 16.4 (00:00) 21.3 7.78 (15:40) 3.61 (15:40) 2.4 0.8 0 1.6 0
03-09-2017 29.6 (16:20) 12.2 (00:00) 20.9 7.78 (15:20) 4.72 (10:50) 0 0 0 0 0
02-09-2017 26.3 (16:50) 13.1 (00:00) 19.7 13.89 (17:30) 7.78 (11:10) 0 0 0 0 0
01-09-2017 26.6 (17:00) 15.2 (00:00) 20.9 11.67 (14:50) 6.39 (09:10) 0 0 0 0 0
31-08-2017 27.4 (15:50) 16.6 (00:00) 22 11.67 (12:30) 6.11 (10:40) 0.8 0 0.8 0 0
30-08-2017 25.6 (14:00) 17.3 (00:00) 21.4 8.06 (02:10) 3.89 (04:30) 5.2 2 3.2 0 0
29-08-2017 28.6 (12:10) 19.2 (00:00) 23.9 10 (21:00) 5.28 (07:10) 0.4 0 0 0.4 0
28-08-2017 32.8 (13:50) 18 (00:00) 25.4 8.33 (15:40) 3.89 (15:20) 0 0 0 0 0
27-08-2017 31.4 (14:40) 18.7 (00:00) 25.1 14.17 (20:30) 7.78 (20:00) 0 0 0 0 0
26-08-2017 30.3 (14:40) 19.9 (00:00) 25.1 7.5 (16:10) 3.61 (16:10) 0 0 0 0 0
25-08-2017 29.6 (15:00) 17.7 (00:00) 23.7 7.5 (17:30) 3.61 (18:30) 0 0 0 0 0
24-08-2017 30.6 (16:20) 18.1 (00:00) 24.4 11.39 (03:30) 5 (03:30) 0.8 0.8 0 0 0
23-08-2017 29.2 (14:00) 17.4 (00:00) 23.3 8.06 (15:30) 3.61 (14:10) 1.2 0 0 1.2 0
22-08-2017 29.7 (14:20) 16.6 (00:00) 23.2 6.94 (14:40) 3.33 (13:50) 0 0 0 0 0

Gráficas

Temp. máximas Temp. mínimas Temp. medias Precipitaciones Rachas de viento máximas Velocidades máximas media en intervalos de 10 minutos

Datos horarios

Fecha y hora oficial Temperatura (ºC) Velocidad del viento (km/h) Dirección del viento Racha (km/h) Dirección de racha Precipitación (mm) Presión (hPa) Tendencia (hPa) Humedad (%)
2017-09-20 23:00:00 12.9 6 Oeste 14 Oeste 0 -- -- 81
2017-09-20 22:00:00 12.8 6 Oeste 12 Oeste 0 -- -- 77
2017-09-20 21:00:00 14 3 Noroeste 10 Oeste 0 -- -- 71
2017-09-20 20:00:00 17.2 0 Calma 10 Este 0 -- -- 60
2017-09-20 19:00:00 20.4 6 Este 15 Este 0 -- -- 48
2017-09-20 18:00:00 22 8 Sudeste 19 Sudeste 0 -- -- 44
2017-09-20 17:00:00 23.3 10 Este 27 Sudeste 0 -- -- 41
2017-09-20 16:00:00 24.4 7 Sudeste 21 Este 0 -- -- 33
2017-09-20 15:00:00 24 12 Sudeste 25 Este 0 -- -- 34
2017-09-20 14:00:00 23.8 8 Sudoeste 17 Sudoeste 0 -- -- 32
2017-09-20 13:00:00 22.1 6 Oeste 20 Sudoeste 0 -- -- 35
2017-09-20 12:00:00 20.2 10 Noroeste 19 Oeste 0 -- -- 40
2017-09-20 11:00:00 18.5 13 Oeste 27 Oeste 0 -- -- 43
2017-09-20 10:00:00 16.1 14 Oeste 25 Sudoeste 0 -- -- 46
2017-09-20 09:00:00 13.3 13 Oeste 32 Noroeste 0 -- -- 55
2017-09-20 08:00:00 11.7 21 Sudoeste 33 Sudoeste 0 -- -- 60
2017-09-20 07:00:00 11.5 12 Sudoeste 32 Sudoeste 0 -- -- 59
2017-09-20 06:00:00 12.4 20 Sudoeste 31 Sudoeste 0 -- -- 56
2017-09-20 05:00:00 12.9 11 Oeste 30 Oeste 0 -- -- 53
2017-09-20 04:00:00 13.8 16 Oeste 28 Oeste 0 -- -- 49
2017-09-20 03:00:00 13.5 11 Oeste 20 Oeste 0 -- -- 51
2017-09-20 02:00:00 14.3 12 Oeste 20 Oeste 0 -- -- 50
2017-09-20 01:00:00 14.3 12 Oeste 19 Oeste 0 -- -- 52
2017-09-20 00:00:00 14.4 12 Oeste 16 Oeste 0 -- -- 53
2017-09-19 23:00:00 16.5 3 Norte 28 Oeste 0 -- -- 46
2017-09-19 22:00:00 17.4 15 Oeste 28 Oeste 0 -- -- 44
2017-09-19 21:00:00 18.2 16 Oeste 29 Sudoeste 0 -- -- 42
2017-09-19 20:00:00 19.5 18 Oeste 30 Oeste 0 -- -- 39
2017-09-19 19:00:00 21.3 16 Oeste 45 Sudoeste 0 -- -- 36
2017-09-19 18:00:00 22.4 18 Oeste 46 Oeste 0 -- -- 33
2017-09-19 17:00:00 22.3 29 Oeste 50 Oeste 0 -- -- 33
2017-09-19 16:00:00 22.4 28 Oeste 47 Oeste 0 -- -- 32
2017-09-19 15:00:00 21.7 30 Oeste 50 Oeste 0 -- -- 35
2017-09-19 14:00:00 20.8 24 Oeste 51 Oeste 0 -- -- 39
2017-09-19 13:00:00 19.9 26 Oeste 48 Oeste 0 -- -- 40
2017-09-19 12:00:00 18.1 26 Oeste 44 Oeste 0 -- -- 47
2017-09-19 11:00:00 16.9 24 Oeste 41 Oeste 0 -- -- 54
2017-09-19 10:00:00 15.6 16 Oeste 39 Oeste 0 -- -- 60
2017-09-19 09:00:00 13.8 21 Oeste 38 Noroeste 0 -- -- 68
2017-09-19 08:00:00 12.4 19 Oeste 35 Oeste 0 -- -- 76
2017-09-19 07:00:00 12.4 16 Oeste 33 Oeste 0 -- -- 76
2017-09-19 06:00:00 12.9 16 Oeste 30 Oeste 0 -- -- 76
2017-09-19 05:00:00 13.2 16 Oeste 29 Oeste 0 -- -- 78
2017-09-19 04:00:00 13.6 13 Oeste 22 Oeste 0 -- -- 78
2017-09-19 03:00:00 14 9 Oeste 23 Oeste 0 -- -- 77
2017-09-19 02:00:00 13.7 7 Noroeste 16 Oeste 0 -- -- 79
2017-09-19 01:00:00 12.2 2 Noroeste 6 Oeste 0 -- -- 92
2017-09-19 00:00:00 13.3 4 Oeste 15 Sudoeste 0 -- -- 92
2017-09-18 23:00:00 14.2 2 Sudoeste 8 Oeste 0 -- -- 89
2017-09-18 22:00:00 16.1 3 Noroeste 12 Norte 0 -- -- 86
2017-09-18 21:00:00 17.3 10 Nordeste 23 Noroeste 0 -- -- 84
2017-09-18 20:00:00 19.9 11 Oeste 35 Noroeste 0 -- -- 50
2017-09-18 19:00:00 21.5 18 Oeste 45 Oeste 0 -- -- 45
2017-09-18 18:00:00 22.7 19 Oeste 38 Oeste 0 -- -- 43
2017-09-18 17:00:00 23.1 17 Oeste 37 Sudoeste 0 -- -- 42
2017-09-18 16:00:00 23.1 13 Oeste 39 Oeste 0 -- -- 42
2017-09-18 15:00:00 22.6 19 Oeste 37 Oeste 0 -- -- 43
2017-09-18 14:00:00 22.4 15 Oeste 36 Oeste 0 -- -- 41
2017-09-18 13:00:00 21.6 13 Oeste 23 Sudoeste 0 -- -- 48
2017-09-18 12:00:00 18.4 16 Oeste 26 Oeste 0 -- -- 67
2017-09-18 11:00:00 17.9 15 Oeste 26 Oeste 0 -- -- 65
2017-09-18 10:00:00 16.1 10 Sudoeste 23 Sudoeste 0 -- -- 77
2017-09-18 09:00:00 16.4 6 Sudoeste 16 Oeste 0 -- -- 90
2017-09-18 08:00:00 16 0 Calma 6 Oeste 0 -- -- 90
2017-09-18 07:00:00 16.1 2 Noroeste 8 Sudeste 0 -- -- 90
2017-09-18 06:00:00 16.4 5 Este 13 Este 0 -- -- 92
2017-09-18 05:00:00 16 5 Sudoeste 8 Sudoeste 0 -- -- 94
2017-09-18 04:00:00 15.5 5 Oeste 9 Sudoeste 0 -- -- 93
2017-09-18 03:00:00 15.1 3 Oeste 8 Oeste 0 -- -- 93
2017-09-18 02:00:00 14.6 7 Oeste 11 Oeste 0 -- -- 94
2017-09-18 01:00:00 14.3 3 Noroeste 10 Oeste 0 -- -- 92
2017-09-18 00:00:00 14.7 6 Oeste 11 Sudoeste 0 -- -- 90
2017-09-17 23:00:00 14.8 3 Sudoeste 9 Sudoeste 0 -- -- 90
2017-09-17 22:00:00 15.1 2 Sudoeste 9 Oeste 0 -- -- 84
2017-09-17 21:00:00 17 2 Sudoeste 6 Nordeste 0 -- -- 79
2017-09-17 20:00:00 18.3 3 Este 13 Este 0 -- -- 75
2017-09-17 19:00:00 19.9 7 Este 17 Este 0 -- -- 69
2017-09-17 18:00:00 20.1 7 Este 23 Este 0 -- -- 66
2017-09-17 17:00:00 21.5 9 Sudeste 24 Sur 0 -- -- 57
2017-09-17 16:00:00 23.8 8 Oeste 30 Oeste 0 -- -- 28
2017-09-17 15:00:00 23.5 13 Oeste 26 Sur 0 -- -- 28
2017-09-17 14:00:00 22.6 13 Sudoeste 23 Sur 0 -- -- 33
2017-09-17 13:00:00 21.8 13 Sudoeste 28 Sudoeste 0 -- -- 37
2017-09-17 12:00:00 20.4 12 Sudoeste 28 Oeste 0 -- -- 38
2017-09-17 11:00:00 18.7 15 Oeste 26 Oeste 0 -- -- 43
2017-09-17 10:00:00 17.1 13 Oeste 26 Noroeste 0 -- -- 48
2017-09-17 09:00:00 13 10 Oeste 22 Sudoeste 0 -- -- 59
2017-09-17 08:00:00 10.9 13 Sudoeste 32 Oeste 0 -- -- 67
2017-09-17 07:00:00 11.5 13 Oeste 30 Oeste 0 -- -- 65
2017-09-17 06:00:00 11.5 18 Oeste 34 Oeste 0 -- -- 66
2017-09-17 05:00:00 11.6 16 Oeste 29 Oeste 0 -- -- 65
2017-09-17 04:00:00 11.6 17 Noroeste 28 Noroeste 0 -- -- 65
2017-09-17 03:00:00 11.5 16 Oeste 33 Oeste 0 -- -- 65
2017-09-17 02:00:00 12.1 17 Oeste 30 Oeste 0 -- -- 63
2017-09-17 01:00:00 12.7 9 Oeste 24 Oeste 0 -- -- 59
2017-09-17 00:00:00 13.4 11 Oeste 22 Oeste 0 -- -- 55
2017-09-16 23:00:00 13.9 12 Oeste 25 Oeste 0 -- -- 53
2017-09-16 22:00:00 14.3 8 Oeste 16 Oeste 0 -- -- 53
2017-09-16 21:00:00 14.6 7 Oeste 14 Oeste 0 -- -- 51
2017-09-16 20:00:00 16.3 8 Oeste 22 Oeste 0 -- -- 46
2017-09-16 19:00:00 18.4 13 Oeste 33 Oeste 0 -- -- 41
2017-09-16 18:00:00 19.3 15 Oeste 38 Oeste 0 -- -- 40
2017-09-16 17:00:00 20 18 Oeste 36 Oeste 0 -- -- 40
2017-09-16 16:00:00 19.7 19 Oeste 35 Oeste 0 -- -- 42
2017-09-16 15:00:00 18.7 21 Oeste 41 Oeste 0 -- -- 50
2017-09-16 14:00:00 17.5 23 Oeste 45 Oeste 0 -- -- 54
2017-09-16 13:00:00 16.1 28 Oeste 49 Oeste 0 -- -- 57
2017-09-16 12:00:00 14.6 28 Oeste 44 Oeste 0 -- -- 65
2017-09-16 11:00:00 13 21 Oeste 45 Oeste 0 -- -- 72
2017-09-16 10:00:00 10.7 28 Oeste 46 Oeste 0 -- -- 79
2017-09-16 09:00:00 9.7 26 Oeste 45 Oeste 0 -- -- 82
2017-09-16 08:00:00 8.7 24 Oeste 52 Oeste 0 -- -- 86
2017-09-16 07:00:00 8.8 20 Oeste 39 Oeste 0 -- -- 86
2017-09-16 06:00:00 9 24 Oeste 41 Oeste 0 -- -- 87
2017-09-16 05:00:00 9.3 20 Noroeste 39 Oeste 0 -- -- 87
2017-09-16 04:00:00 9.2 13 Oeste 26 Oeste 0 -- -- 90
2017-09-16 03:00:00 9.6 5 Oeste 24 Noroeste 0 -- -- 90
2017-09-16 02:00:00 9.8 13 Oeste 23 Noroeste 0 -- -- 92
2017-09-16 01:00:00 8.7 3 Noroeste 12 Noroeste 0 -- -- 96
2017-09-16 00:00:00 8.8 5 Oeste 14 Sudoeste 0 -- -- 93
2017-09-15 23:00:00 9.1 9 Oeste 12 Oeste 0 -- -- 92
2017-09-15 22:00:00 9.9 4 Oeste 14 Sudoeste 0 -- -- 94
2017-09-15 21:00:00 10.4 8 Oeste 14 Oeste 0 -- -- 95
2017-09-15 20:00:00 10.9 8 Oeste 14 Oeste 0 -- -- 94
2017-09-15 19:00:00 11.1 4 Noroeste 18 Oeste 0.2 -- -- 93
2017-09-15 18:00:00 11.2 10 Oeste 33 Sudoeste 1.6 -- -- 93
2017-09-15 17:00:00 11.2 17 Oeste 50 Oeste 0.8 -- -- 93
2017-09-15 16:00:00 11.5 20 Noroeste 46 Noroeste 0.6 -- -- 88
2017-09-15 15:00:00 11.1 25 Oeste 50 Oeste 1.2 -- -- 93
2017-09-15 14:00:00 10.9 21 Oeste 35 Oeste 2.6 -- -- 94
2017-09-15 13:00:00 11.2 18 Oeste 32 Oeste 1.2 -- -- 92
2017-09-15 12:00:00 11.2 21 Oeste 34 Oeste 1.8 -- -- 90
2017-09-15 11:00:00 11.3 14 Oeste 38 Oeste 0.4 -- -- 89
2017-09-15 10:00:00 11.6 15 Oeste 28 Oeste 0 -- -- 85
2017-09-15 09:00:00 13.1 18 Oeste 35 Noroeste 0 -- -- 68
2017-09-15 08:00:00 12.5 12 Oeste 25 Oeste 0 -- -- 72
2017-09-15 07:00:00 12.3 15 Oeste 29 Oeste 0.2 -- -- 70
2017-09-15 06:00:00 12.7 14 Oeste 26 Sudoeste 0 -- -- 67
2017-09-15 05:00:00 13.2 12 Oeste 22 Oeste 0 -- -- 64
2017-09-15 04:00:00 13.9 13 Oeste 29 Oeste 0 -- -- 69
2017-09-15 03:00:00 14.6 12 Oeste 26 Oeste 0 -- -- 60
2017-09-15 02:00:00 15.5 15 Oeste 32 Oeste 0 -- -- 59
2017-09-15 01:00:00 15.8 14 Oeste 29 Oeste 0 -- -- 57
2017-09-15 00:00:00 17.7 15 Oeste 30 Oeste 0 -- -- 51
2017-09-14 23:00:00 18.5 11 Oeste 25 Oeste 0 -- -- 52
2017-09-14 22:00:00 19.3 9 Oeste 15 Oeste 0 -- -- 51
2017-09-14 21:00:00 20.9 2 Nordeste 15 Este 0 -- -- 79
2017-09-14 20:00:00 23.6 4 Oeste 37 Noroeste 0 -- -- 43
2017-09-14 19:00:00 25.2 21 Oeste 37 Oeste 0 -- -- 39
2017-09-14 18:00:00 27.4 22 Oeste 40 Oeste 0 -- -- 36
2017-09-14 17:00:00 28.7 19 Oeste 40 Oeste 0 -- -- 39
2017-09-14 16:00:00 28.9 21 Oeste 48 Oeste 0 -- -- 41
2017-09-14 15:00:00 28 19 Oeste 40 Sudoeste 0 -- -- 46
2017-09-14 14:00:00 27.5 18 Oeste 40 Oeste 0 -- -- 49
2017-09-14 13:00:00 27.3 14 Sudoeste 31 Sudoeste 0 -- -- 51
2017-09-14 12:00:00 27.5 15 Sudoeste 33 Oeste 0 -- -- 48
2017-09-14 11:00:00 25.7 10 Oeste 21 Oeste 0 -- -- 59
2017-09-14 10:00:00 23 4 Sur 8 Sur 0 -- -- 76
2017-09-14 09:00:00 20.5 2 Oeste 6 Oeste 0 -- -- 86
2017-09-14 08:00:00 19.7 4 Oeste 9 Norte 0 -- -- 88
2017-09-14 07:00:00 19.8 4 Sudeste 7 Nordeste 0 -- -- 88
2017-09-14 06:00:00 19.7 2 Este 6 Norte 0 -- -- 88
2017-09-14 05:00:00 19.5 0 Calma 8 Sudoeste 0 -- -- 88
2017-09-14 04:00:00 19.6 3 Norte 8 Noroeste 0 -- -- 88
2017-09-14 03:00:00 18.7 2 Sur 8 Sur 0 -- -- 90
2017-09-14 02:00:00 18.1 0 Calma 10 Norte 0 -- -- 90
2017-09-14 01:00:00 17.4 4 Nordeste 9 Nordeste 0 -- -- 92
2017-09-14 00:00:00 17 4 Oeste 8 Oeste 0 -- -- 91
2017-09-13 23:00:00 17.8 2 Oeste 10 Oeste 0 -- -- 86
2017-09-13 22:00:00 18.7 4 Sudoeste 9 Nordeste 0 -- -- 83
2017-09-13 21:00:00 20 4 Nordeste 12 Este 0 -- -- 81
2017-09-13 20:00:00 21.2 7 Este 16 Este 0 -- -- 79
2017-09-13 19:00:00 23.8 9 Este 17 Este 0 -- -- 68
2017-09-13 18:00:00 25.5 8 Sudeste 20 Este 0 -- -- 57
2017-09-13 17:00:00 26.7 10 Sudeste 20 Sudeste 0 -- -- 54
2017-09-13 16:00:00 26.9 8 Este 26 Este 0 -- -- 48
2017-09-13 15:00:00 27.7 14 Este 31 Este 0 -- -- 43
2017-09-13 14:00:00 28.5 14 Sudeste 23 Sur 0 -- -- 37
2017-09-13 13:00:00 27.4 12 Sur 26 Sudoeste 0 -- -- 35
2017-09-13 12:00:00 25.7 8 Oeste 22 Oeste 0 -- -- 39
2017-09-13 11:00:00 23.6 12 Sudoeste 22 Oeste 0 -- -- 44
2017-09-13 10:00:00 21.1 11 Oeste 27 Oeste 0 -- -- 50
2017-09-13 09:00:00 19 11 Noroeste 23 Oeste 0 -- -- 53
2017-09-13 08:00:00 16.1 7 Sudoeste 19 Oeste 0 -- -- 60
2017-09-13 07:00:00 17.3 10 Oeste 24 Noroeste 0 -- -- 55
2017-09-13 06:00:00 17.3 10 Noroeste 19 Noroeste 0 -- -- 54
2017-09-13 05:00:00 17.2 11 Noroeste 19 Noroeste 0 -- -- 54
2017-09-13 04:00:00 17.3 8 Oeste 15 Noroeste 0 -- -- 53
2017-09-13 03:00:00 17.4 9 Noroeste 16 Noroeste 0 -- -- 51
2017-09-13 02:00:00 15.4 7 Noroeste 13 Noroeste 0 -- -- 56
2017-09-13 01:00:00 13.8 2 Oeste 9 Oeste 0 -- -- 60
2017-09-13 00:00:00 15.4 4 Noroeste 12 Oeste 0 -- -- 53
2017-09-12 23:00:00 15.9 6 Noroeste 13 Oeste 0 -- -- 51
2017-09-12 22:00:00 18.7 6 Oeste 20 Oeste 0 -- -- 46
2017-09-12 21:00:00 19.9 9 Oeste 20 Oeste 0 -- -- 42
2017-09-12 20:00:00 21.4 17 Oeste 39 Noroeste 0 -- -- 37
2017-09-12 19:00:00 23.1 19 Oeste 38 Oeste 0 -- -- 35
2017-09-12 18:00:00 24.3 21 Oeste 39 Oeste 0 -- -- 34
2017-09-12 17:00:00 24.6 19 Oeste 39 Oeste 0 -- -- 36
2017-09-12 16:00:00 24.9 20 Oeste 42 Oeste 0 -- -- 35
2017-09-12 15:00:00 23.5 19 Oeste 41 Sudoeste 0 -- -- 39
2017-09-12 14:00:00 21.3 20 Oeste 40 Oeste 0 -- -- 46
2017-09-12 13:00:00 21.3 23 Oeste 42 Oeste 0 -- -- 46
2017-09-12 12:00:00 19.3 20 Oeste 37 Oeste 0 -- -- 53
2017-09-12 11:00:00 17.2 19 Oeste 39 Oeste 0 -- -- 62
2017-09-12 10:00:00 16.9 22 Oeste 39 Oeste 0 -- -- 61
2017-09-12 09:00:00 16.8 8 Oeste 31 Oeste 0 -- -- 60
2017-09-12 08:00:00 16.1 17 Oeste 30 Oeste 0 -- -- 65
2017-09-12 07:00:00 15.6 14 Oeste 30 Oeste 0 -- -- 68
2017-09-12 06:00:00 16.2 16 Oeste 39 Oeste 0 -- -- 67
2017-09-12 05:00:00 17.1 17 Noroeste 33 Oeste 0 -- -- 64
2017-09-12 04:00:00 17.8 17 Oeste 37 Oeste 0 -- -- 63
2017-09-12 03:00:00 18.5 17 Oeste 32 Oeste 0 -- -- 62
2017-09-12 02:00:00 19.1 17 Oeste 36 Oeste 0 -- -- 59
2017-09-12 01:00:00 19.9 13 Oeste 26 Oeste 0 -- -- 58
2017-09-12 00:00:00 19.9 9 Oeste 17 Oeste 0 -- -- 56
2017-09-11 23:00:00 20.8 7 Oeste 23 Oeste 0 -- -- 53
2017-09-11 22:00:00 21.8 8 Oeste 23 Sudoeste 0 -- -- 51
2017-09-11 21:00:00 23.3 14 Oeste 28 Oeste 0 -- -- 48
2017-09-11 20:00:00 24.7 13 Oeste 37 Noroeste 0 -- -- 46
2017-09-11 19:00:00 26.5 18 Oeste 43 Oeste 0 -- -- 42
2017-09-11 18:00:00 27.5 23 Oeste 51 Sudoeste 0 -- -- 41
2017-09-11 17:00:00 28.2 26 Oeste 51 Noroeste 0 -- -- 38
2017-09-11 16:00:00 28.6 27 Oeste 49 Oeste 0 -- -- 39
2017-09-11 15:00:00 28.3 25 Oeste 62 Oeste 0 -- -- 40
2017-09-11 14:00:00 27.3 32 Oeste 66 Noroeste 0 -- -- 42
2017-09-11 13:00:00 26.1 33 Oeste 66 Oeste 0 -- -- 45
2017-09-11 12:00:00 23.9 24 Oeste 54 Oeste 0 -- -- 48
2017-09-11 11:00:00 23.5 27 Oeste 54 Oeste 0 -- -- 52
2017-09-11 10:00:00 21.7 23 Oeste 52 Sudoeste 0 -- -- 57
2017-09-11 09:00:00 20.7 26 Oeste 44 Oeste 0 -- -- 61
2017-09-11 08:00:00 18.5 23 Oeste 50 Sudoeste 0 -- -- 69
2017-09-11 07:00:00 17.7 26 Oeste 50 Oeste 0 -- -- 71
2017-09-11 06:00:00 17.8 25 Oeste 52 Oeste 0 -- -- 69
2017-09-11 05:00:00 17.3 30 Oeste 62 Oeste 0 -- -- 64
2017-09-11 04:00:00 17.5 29 Oeste 61 Noroeste 0 -- -- 59
2017-09-11 03:00:00 18 32 Oeste 62 Oeste 0 -- -- 55
2017-09-11 02:00:00 17.7 36 Oeste 60 Oeste 0 -- -- 51
2017-09-11 01:00:00 18.2 35 Oeste 53 Oeste 0 -- -- 48
2017-09-11 00:00:00 17.8 29 Oeste 46 Oeste 0 -- -- 50
2017-09-10 23:00:00 17.9 24 Oeste 56 Oeste 0 -- -- 52
2017-09-10 22:00:00 18.3 31 Oeste 55 Oeste 0 -- -- 50
2017-09-10 21:00:00 18.6 30 Oeste 59 Noroeste 0 -- -- 49
2017-09-10 20:00:00 19.7 24 Oeste 48 Oeste 0 -- -- 47
2017-09-10 19:00:00 21.1 21 Oeste 51 Oeste 0 -- -- 43
2017-09-10 18:00:00 22.4 26 Oeste 50 Oeste 0 -- -- 39
2017-09-10 17:00:00 23.3 28 Oeste 53 Noroeste 0 -- -- 37
2017-09-10 16:00:00 23.5 29 Oeste 52 Oeste 0 -- -- 35
2017-09-10 15:00:00 23.2 28 Oeste 50 Sudoeste 0 -- -- 35
2017-09-10 14:00:00 22.4 26 Oeste 51 Oeste 0 -- -- 39
2017-09-10 13:00:00 21.2 26 Oeste 50 Oeste 0 -- -- 43
2017-09-10 12:00:00 19.1 29 Oeste 51 Oeste 0 -- -- 49
2017-09-10 11:00:00 17 25 Oeste 48 Oeste 0 -- -- 56
2017-09-10 10:00:00 14.9 29 Oeste 51 Oeste 0 -- -- 62
2017-09-10 09:00:00 13.5 29 Oeste 50 Oeste 0 -- -- 67
2017-09-10 08:00:00 12.3 23 Noroeste 50 Oeste 0 -- -- 70
2017-09-10 07:00:00 12.2 28 Oeste 46 Oeste 0 -- -- 71
2017-09-10 06:00:00 12.1 19 Oeste 38 Oeste 0 -- -- 72
2017-09-10 05:00:00 12.7 21 Oeste 38 Oeste 0 -- -- 68
2017-09-10 04:00:00 12.9 15 Oeste 44 Oeste 0 -- -- 67
2017-09-10 03:00:00 13.5 18 Oeste 41 Oeste 0 -- -- 64
2017-09-10 02:00:00 14.1 19 Oeste 59 Noroeste 0 -- -- 61
2017-09-10 01:00:00 14.6 22 Noroeste 46 Noroeste 0 -- -- 58
2017-09-10 00:00:00 15.2 24 Oeste 53 Oeste 0 -- -- 59
2017-09-09 23:00:00 16.1 22 Oeste 41 Oeste 0 -- -- 58
2017-09-09 22:00:00 15.9 13 Oeste 37 Oeste 0 -- -- 66
2017-09-09 21:00:00 16.1 17 Oeste 48 Noroeste 0 -- -- 69
2017-09-09 20:00:00 17 25 Oeste 47 Oeste 0 -- -- 64
2017-09-09 19:00:00 17.4 18 Oeste 36 Oeste 0 -- -- 78
2017-09-09 18:00:00 16.4 16 Noroeste 35 Oeste 0 -- -- 82
2017-09-09 17:00:00 15.5 18 Oeste 32 Oeste 0 -- -- 88
2017-09-09 16:00:00 15.2 13 Oeste 27 Oeste 2.4 -- -- 93
2017-09-09 15:00:00 15.8 19 Oeste 50 Oeste 1 -- -- 89
2017-09-09 14:00:00 17.9 28 Oeste 51 Oeste 0 -- -- 76
2017-09-09 13:00:00 18.8 30 Oeste 51 Oeste 0 -- -- 68
2017-09-09 12:00:00 18.2 24 Oeste 54 Oeste 0 -- -- 64
2017-09-09 11:00:00 20.2 34 Oeste 52 Oeste 0 -- -- 56
2017-09-09 10:00:00 20.4 23 Oeste 39 Oeste 0 -- -- 75
2017-09-09 09:00:00 20.6 14 Oeste 29 Oeste 0 -- -- 85
2017-09-09 08:00:00 19.4 6 Oeste 10 Sudoeste 0 -- -- 92
2017-09-09 07:00:00 19.7 3 Noroeste 4 Oeste 0 -- -- 88
2017-09-09 06:00:00 20.1 0 Calma 4 Oeste 0 -- -- 87
2017-09-09 05:00:00 20.4 0 Calma 6 Sudoeste 0 -- -- 87
2017-09-09 04:00:00 20.3 4 Oeste 7 Noroeste 0 -- -- 86
2017-09-09 03:00:00 19.9 0 Calma 7 Sudoeste 0 -- -- 86
2017-09-09 02:00:00 19.3 4 Oeste 8 Noroeste 0 -- -- 86
2017-09-09 01:00:00 19.9 5 Oeste 9 Oeste 0 -- -- 84
2017-09-09 00:00:00 20 3 Oeste 7 Nordeste 0 -- -- 83
2017-09-08 23:00:00 20.1 4 Norte 11 Nordeste 0 -- -- 83
2017-09-08 22:00:00 19.9 4 Este 10 Nordeste 0 -- -- 83
2017-09-08 21:00:00 19.7 3 Nordeste 8 Nordeste 0 -- -- 80
2017-09-08 20:00:00 21.1 4 Este 13 Sudeste 0 -- -- 74
2017-09-08 19:00:00 23.1 8 Sudeste 22 Este 0 -- -- 64
2017-09-08 18:00:00 25 9 Sudeste 21 Este 0 -- -- 49
2017-09-08 17:00:00 26.4 11 Este 27 Noroeste 0 -- -- 35
2017-09-08 16:00:00 28.5 6 Sudoeste 26 Oeste 0 -- -- 23
2017-09-08 15:00:00 27.8 10 Sudoeste 26 Sur 0 -- -- 27
2017-09-08 14:00:00 26.9 12 Sudoeste 24 Oeste 0 -- -- 30
2017-09-08 13:00:00 25.3 10 Sur 18 Sudoeste 0 -- -- 36
2017-09-08 12:00:00 23.3 4 Sur 19 Sudoeste 0 -- -- 44
2017-09-08 11:00:00 21.4 13 Oeste 23 Oeste 0 -- -- 47
2017-09-08 10:00:00 18.4 13 Sudoeste 23 Oeste 0 -- -- 54
2017-09-08 09:00:00 15.2 14 Oeste 34 Oeste 0 -- -- 65
2017-09-08 08:00:00 13.6 19 Oeste 31 Sudoeste 0 -- -- 71
2017-09-08 07:00:00 14 15 Sudoeste 33 Sudoeste 0 -- -- 69
2017-09-08 06:00:00 14.8 19 Oeste 32 Oeste 0 -- -- 67
2017-09-08 05:00:00 15.2 20 Oeste 37 Oeste 0 -- -- 64
2017-09-08 04:00:00 15.9 18 Oeste 37 Oeste 0 -- -- 62
2017-09-08 03:00:00 15.4 5 Oeste 15 Oeste 0 -- -- 66
2017-09-08 02:00:00 15.3 5 Sur 20 Sudeste 0 -- -- 66
2017-09-08 01:00:00 14.5 0 Calma 11 Oeste 0 -- -- 70
2017-09-08 00:00:00 14.9 5 Oeste 9 Sudoeste 0 -- -- 68
2017-09-07 23:00:00 15.3 3 Sudoeste 6 Sudoeste 0 -- -- 66
2017-09-07 22:00:00 16.6 0 Calma 10 Sudoeste 0 -- -- 61
2017-09-07 21:00:00 19.5 4 Sudoeste 10 Oeste 0 -- -- 50
2017-09-07 20:00:00 22.7 6 Oeste 19 Oeste 0 -- -- 40
2017-09-07 19:00:00 24.8 11 Oeste 27 Sudoeste 0 -- -- 36
2017-09-07 18:00:00 25.7 16 Sudoeste 29 Oeste 0 -- -- 35
2017-09-07 17:00:00 26.5 13 Oeste 30 Oeste 0 -- -- 36
2017-09-07 16:00:00 26.2 19 Oeste 33 Sudoeste 0 -- -- 38
2017-09-07 15:00:00 25.5 17 Oeste 28 Oeste 0 -- -- 39
2017-09-07 14:00:00 24 16 Oeste 35 Oeste 0 -- -- 43
2017-09-07 13:00:00 22.4 21 Oeste 40 Oeste 0 -- -- 47
2017-09-07 12:00:00 21.1 23 Oeste 40 Oeste 0 -- -- 50
2017-09-07 11:00:00 18.6 22 Oeste 43 Oeste 0 -- -- 58
2017-09-07 10:00:00 17 26 Oeste 46 Oeste 0 -- -- 64
2017-09-07 09:00:00 15.2 26 Oeste 40 Oeste 0 -- -- 70
2017-09-07 08:00:00 13.8 18 Oeste 37 Oeste 0 -- -- 75
2017-09-07 07:00:00 14.1 11 Oeste 33 Oeste 0 -- -- 73
2017-09-07 06:00:00 14.8 11 Oeste 40 Oeste 0 -- -- 71
2017-09-07 05:00:00 15.2 22 Oeste 48 Oeste 0 -- -- 69
2017-09-07 04:00:00 15.8 31 Oeste 47 Oeste 0 -- -- 66
2017-09-07 03:00:00 16.5 22 Oeste 38 Oeste 0 -- -- 63
2017-09-07 02:00:00 17.7 21 Oeste 44 Oeste 0 -- -- 60
2017-09-07 01:00:00 19.1 22 Oeste 41 Oeste 0 -- -- 59
2017-09-07 00:00:00 20.3 14 Oeste 28 Oeste 0 -- -- 59
2017-09-06 23:00:00 21.5 3 Sudoeste 12 Sudeste 0 -- -- 84
2017-09-06 22:00:00 21.9 4 Este 10 Sudeste 0 -- -- 87
2017-09-06 21:00:00 21.8 3 Este 12 Este 0 -- -- 85
2017-09-06 20:00:00 22.7 5 Este 14 Este 0 -- -- 74
2017-09-06 19:00:00 25 6 Sudeste 20 Este 0 -- -- 56
2017-09-06 18:00:00 26.6 9 Sudeste 19 Este 0 -- -- 55
2017-09-06 17:00:00 27.2 11 Sudeste 22 Sudeste 0 -- -- 52
2017-09-06 16:00:00 27.7 12 Sudeste 32 Sudeste 0 -- -- 48
2017-09-06 15:00:00 29 12 Oeste 24 Sudoeste 0 -- -- 38
2017-09-06 14:00:00 28.5 12 Oeste 28 Oeste 0 -- -- 42
2017-09-06 13:00:00 26.6 15 Oeste -- -- -- -- -- 46
2017-09-06 12:00:00 24.2 14 Oeste 34 Oeste 0 -- -- 52
2017-09-06 11:00:00 23.2 17 Oeste 36 Oeste 0 -- -- 57
2017-09-06 10:00:00 21.5 19 Oeste 37 Oeste 0 -- -- 62
2017-09-06 09:00:00 19.7 22 Oeste 37 Noroeste 0 -- -- 69
2017-09-06 08:00:00 18.5 18 Oeste 32 Oeste 0 -- -- 76
2017-09-06 07:00:00 18.8 17 Sudoeste 32 Oeste 0 -- -- 82
2017-09-06 06:00:00 19.7 18 Oeste 31 Oeste 0 -- -- 91
2017-09-06 05:00:00 18.6 8 Noroeste 14 Oeste 0 -- -- 97
2017-09-06 04:00:00 18 5 Oeste 8 Oeste 0 -- -- 97
2017-09-06 03:00:00 17.2 0 Calma 5 Oeste 0 -- -- 95
2017-09-06 02:00:00 17.6 2 Oeste 9 Oeste 0 -- -- 94
2017-09-06 01:00:00 17.5 4 Oeste 6 Oeste 0 -- -- 93
2017-09-06 00:00:00 18.2 0 Calma 11 Oeste 0 -- -- 88
2017-09-05 23:00:00 19.4 5 Oeste 10 Oeste 0 -- -- 89
2017-09-05 22:00:00 20.4 4 Sudoeste 6 Oeste 0 -- -- 87
2017-09-05 21:00:00 22 3 Norte 6 Este 0 -- -- 83
2017-09-05 20:00:00 23.6 4 Este 15 Sudeste 0 -- -- 77
2017-09-05 19:00:00 25.5 6 Este 17 Sudeste 0 -- -- 69
2017-09-05 18:00:00 27 9 Sudeste 21 Sudeste 0 -- -- 62
2017-09-05 17:00:00 27.9 9 Sudeste 23 Este 0 -- -- 61
2017-09-05 16:00:00 27.7 9 Sudeste 24 Este 0 -- -- 64
2017-09-05 15:00:00 28.3 10 Sudeste 26 Este 0 -- -- 63
2017-09-05 14:00:00 27.9 11 Este 27 Este 0 -- -- 62
2017-09-05 13:00:00 26.8 6 Este 14 Este 0 -- -- 66
2017-09-05 12:00:00 24 2 Sur 12 Sudeste 0 -- -- 74
2017-09-05 11:00:00 23.7 2 Norte 10 Sudeste 0 -- -- 72
2017-09-05 10:00:00 23.2 4 Este 10 Este 0 -- -- 77
2017-09-05 09:00:00 19.3 3 Sudoeste 5 Oeste 0 -- -- 97
2017-09-05 08:00:00 15.8 3 Oeste 12 Sudoeste 0 -- -- 98
2017-09-05 07:00:00 15.7 9 Oeste 12 Oeste 0 -- -- 98
2017-09-05 06:00:00 15.5 6 Oeste 9 Oeste 0 -- -- 97
2017-09-05 05:00:00 15.9 6 Oeste 9 Sudoeste 0 -- -- 97
2017-09-05 04:00:00 16.3 6 Oeste 9 Oeste 0 -- -- 97
2017-09-05 03:00:00 16.5 2 Oeste 6 Noroeste 0 -- -- 96
2017-09-05 02:00:00 17.4 4 Noroeste 6 Noroeste 0 -- -- 95
2017-09-05 01:00:00 18.5 3 Noroeste 4 Oeste 0 -- -- 94
2017-09-05 00:00:00 19.4 2 Este 4 Este 0 -- -- 94
2017-09-04 23:00:00 19.9 3 Sudeste 6 Este 0 -- -- 93
2017-09-04 22:00:00 20.4 3 Este 9 Nordeste 0 -- -- 92
2017-09-04 21:00:00 20.8 3 Este 14 Sudeste 0 -- -- 90
2017-09-04 20:00:00 21.3 4 Este 13 Este 0 -- -- 88
2017-09-04 19:00:00 21.6 4 Nordeste 13 Nordeste 0 -- -- 89
2017-09-04 18:00:00 21.1 6 Nordeste 14 Nordeste 0.2 -- -- 91
2017-09-04 17:00:00 21.5 5 Este 25 Sudeste 0.8 -- -- 89
2017-09-04 16:00:00 22.4 9 Sudeste 28 Sudeste 0.6 -- -- 85
2017-09-04 15:00:00 23.5 10 Este 24 Sudeste 0 -- -- 76
2017-09-04 14:00:00 24.8 9 Sudeste 24 Este 0 -- -- 68
2017-09-04 13:00:00 24.9 9 Este 23 Este 0 -- -- 66
2017-09-04 12:00:00 25.3 9 Este 21 Sudeste 0 -- -- 70
2017-09-04 11:00:00 23.2 6 Este 14 Este 0 -- -- 81
2017-09-04 10:00:00 21.1 6 Este 11 Este 0 -- -- 92
2017-09-04 09:00:00 18.9 3 Sudeste 6 Sudeste 0 -- -- 98
2017-09-04 08:00:00 17.2 3 Este 6 Este 0 -- -- 97
2017-09-04 07:00:00 16.8 2 Oeste 6 Sudoeste 0 -- -- 96
2017-09-04 06:00:00 17.1 2 Sudoeste 6 Oeste 0 -- -- 95
2017-09-04 05:00:00 17.1 5 Sudoeste 8 Noroeste 0 -- -- 95
2017-09-04 04:00:00 17.2 4 Oeste 12 Oeste 0 -- -- 94
2017-09-04 03:00:00 17.6 3 Oeste 8 Oeste 0 -- -- 94
2017-09-04 02:00:00 17.8 4 Oeste 10 Oeste 0 -- -- 92
2017-09-04 01:00:00 18.5 3 Noroeste 13 Oeste 0.8 -- -- 91
2017-09-04 00:00:00 18.7 5 Oeste 11 Sudoeste 0 -- -- 88
2017-09-03 23:00:00 18.3 2 Noroeste 10 Oeste 0 -- -- 88
2017-09-03 22:00:00 18.4 3 Sudoeste 10 Oeste 0 -- -- 83
2017-09-03 21:00:00 20.2 0 Calma 10 Nordeste 0 -- -- 79
2017-09-03 20:00:00 22.3 3 Nordeste 10 Este 0 -- -- 74
2017-09-03 19:00:00 24 6 Este 17 Este 0 -- -- 64
2017-09-03 18:00:00 24.9 7 Este 26 Este 0 -- -- 57
2017-09-03 17:00:00 27.6 8 Este 22 Nordeste 0 -- -- 46
2017-09-03 16:00:00 29 9 Sudoeste 28 Oeste 0 -- -- 26
2017-09-03 15:00:00 28.2 9 Sudoeste 19 Sudoeste 0 -- -- 25
2017-09-03 14:00:00 26.7 10 Oeste 28 Oeste 0 -- -- 27
2017-09-03 13:00:00 26.8 10 Oeste 24 Oeste 0 -- -- 31
2017-09-03 12:00:00 23.3 10 Oeste 25 Sudoeste 0 -- -- 36
2017-09-03 11:00:00 22.6 13 Oeste 28 Oeste 0 -- -- 42
2017-09-03 10:00:00 20.6 11 Sudoeste 21 Sudoeste 0 -- -- 46
2017-09-03 09:00:00 17.4 9 Sudoeste 19 Oeste 0 -- -- 52
2017-09-03 08:00:00 14.8 3 Sur 14 Sudoeste 0 -- -- 67
2017-09-03 07:00:00 12.9 7 Sudoeste 13 Sudoeste 0 -- -- 75
2017-09-03 06:00:00 12.5 5 Sudoeste 9 Sudoeste 0 -- -- 77
2017-09-03 05:00:00 13 5 Oeste 9 Sudoeste 0 -- -- 72
2017-09-03 04:00:00 13.7 3 Noroeste 10 Noroeste 0 -- -- 69
2017-09-03 03:00:00 17.3 7 Oeste 22 Noroeste 0 -- -- 56
2017-09-03 02:00:00 17.3 5 Sudoeste 24 Oeste 0 -- -- 54
2017-09-03 01:00:00 17.2 9 Oeste 18 Oeste 0 -- -- 54
2017-09-03 00:00:00 18.6 8 Oeste 20 Oeste 0 -- -- 49
2017-09-02 23:00:00 19.6 12 Oeste 33 Oeste 0 -- -- 47
2017-09-02 22:00:00 20.2 18 Oeste 29 Oeste 0 -- -- 45
2017-09-02 21:00:00 21.1 13 Oeste 24 Oeste 0 -- -- 44
2017-09-02 20:00:00 23.3 12 Oeste 31 Oeste 0 -- -- 36
2017-09-02 19:00:00 24.8 16 Oeste 43 Noroeste 0 -- -- 33
2017-09-02 18:00:00 25.9 17 Oeste 50 Oeste 0 -- -- 33
2017-09-02 17:00:00 26.2 18 Oeste 41 Sudoeste 0 -- -- 29
2017-09-02 16:00:00 25.7 22 Oeste 42 Oeste 0 -- -- 32
2017-09-02 15:00:00 24.7 21 Oeste 39 Oeste 0 -- -- 33
2017-09-02 14:00:00 23.9 19 Oeste 39 Oeste 0 -- -- 36
2017-09-02 13:00:00 22.2 22 Oeste 43 Oeste 0 -- -- 41
2017-09-02 12:00:00 20.3 24 Oeste 47 Oeste 0 -- -- 49
2017-09-02 11:00:00 18.6 28 Oeste 49 Oeste 0 -- -- 54
2017-09-02 10:00:00 16.5 24 Oeste 46 Oeste 0 -- -- 62
2017-09-02 09:00:00 15.3 20 Oeste 40 Oeste 0 -- -- 67
2017-09-02 08:00:00 13.3 16 Oeste 31 Oeste 0 -- -- 75
2017-09-02 07:00:00 13.3 17 Oeste 34 Oeste 0 -- -- 73
2017-09-02 06:00:00 13.7 20 Oeste 42 Oeste 0 -- -- 71
2017-09-02 05:00:00 14.2 19 Oeste 47 Oeste 0 -- -- 67
2017-09-02 04:00:00 14.7 19 Oeste 42 Oeste 0 -- -- 63
2017-09-02 03:00:00 15.3 17 Oeste 37 Oeste 0 -- -- 60
2017-09-02 02:00:00 16.1 19 Oeste 38 Oeste 0 -- -- 58
2017-09-02 01:00:00 17.2 18 Oeste 38 Oeste 0 -- -- 53
2017-09-02 00:00:00 18 14 Oeste 25 Oeste 0 -- -- 48
2017-09-01 23:00:00 18.8 9 Oeste 36 Oeste 0 -- -- 45
2017-09-01 22:00:00 20 11 Oeste 26 Sudoeste 0 -- -- 41
2017-09-01 21:00:00 21.3 14 Oeste 32 Oeste 0 -- -- 36
2017-09-01 20:00:00 22.5 14 Oeste 30 Oeste 0 -- -- 36
2017-09-01 19:00:00 24.6 17 Oeste 39 Oeste 0 -- -- 33
2017-09-01 18:00:00 25.9 19 Oeste 36 Sudoeste 0 -- -- 31
2017-09-01 17:00:00 26.6 18 Oeste 37 Oeste 0 -- -- 31
2017-09-01 16:00:00 26.5 18 Oeste 39 Sudoeste 0 -- -- 33
2017-09-01 15:00:00 25.9 19 Oeste 42 Oeste 0 -- -- 35
2017-09-01 14:00:00 23.3 19 Oeste 32 Oeste 0 -- -- 42
2017-09-01 13:00:00 21.9 6 Sudoeste 24 Oeste 0 -- -- 44
2017-09-01 12:00:00 19.2 14 Oeste 28 Oeste 0 -- -- 55
2017-09-01 11:00:00 17.9 12 Oeste 29 Oeste 0 -- -- 59
2017-09-01 10:00:00 16.9 18 Oeste 36 Oeste 0 -- -- 65
2017-09-01 09:00:00 15.5 18 Oeste 33 Oeste 0 -- -- 71
2017-09-01 08:00:00 15.4 16 Oeste 32 Noroeste 0 -- -- 72
2017-09-01 07:00:00 15.2 13 Oeste 32 Oeste 0 -- -- 74
2017-09-01 06:00:00 15.6 17 Oeste 33 Oeste 0 -- -- 74
2017-09-01 05:00:00 16.4 19 Oeste 31 Oeste 0 -- -- 72
2017-09-01 04:00:00 16.6 10 Oeste 21 Oeste 0 -- -- 79
2017-09-01 03:00:00 17.7 9 Oeste 24 Oeste 0 -- -- 89
2017-09-01 02:00:00 17.3 8 Oeste 15 Oeste 0 -- -- 93
2017-09-01 01:00:00 17.4 8 Oeste 10 Oeste 0 -- -- 92
2017-09-01 00:00:00 18.6 5 Oeste 9 Este 0 -- -- 90
2017-08-31 23:00:00 19.4 2 Este 12 Sudeste 0 -- -- 89
2017-08-31 22:00:00 19.8 3 Este 8 Este 0 -- -- 88
2017-08-31 21:00:00 20.2 4 Este 13 Este 0 -- -- 87
2017-08-31 20:00:00 20.9 6 Sudeste 19 Este 0 -- -- 85
2017-08-31 19:00:00 22.4 6 Sudeste 13 Este 0 -- -- 78
2017-08-31 18:00:00 22.7 7 Este 21 Sudeste 0 -- -- 77
2017-08-31 17:00:00 24 10 Sudeste 24 Sudoeste 0 -- -- 67
2017-08-31 16:00:00 27 11 Sudoeste 23 Oeste 0 -- -- 47
2017-08-31 15:00:00 26 15 Oeste 27 Oeste 0 -- -- 48
2017-08-31 14:00:00 23.9 15 Oeste 37 Sudoeste 0 -- -- 56
2017-08-31 13:00:00 22.4 18 Sudoeste 42 Oeste 0 -- -- 64
2017-08-31 12:00:00 20.9 21 Oeste 40 Oeste 0 -- -- 70
2017-08-31 11:00:00 17.9 18 Oeste 41 Oeste 0 -- -- 81
2017-08-31 10:00:00 17.1 21 Oeste 40 Sudoeste 0 -- -- 87
2017-08-31 09:00:00 16.7 18 Oeste 34 Oeste 0.2 -- -- 93
2017-08-31 08:00:00 17 18 Oeste 37 Oeste 0.6 -- -- 93
2017-08-31 07:00:00 18.4 20 Oeste 34 Oeste 0 -- -- 87
2017-08-31 06:00:00 19.3 15 Oeste 30 Oeste 0 -- -- 87
2017-08-31 05:00:00 19.6 9 Sudoeste 14 Oeste 0 -- -- 84
2017-08-31 04:00:00 19.6 2 Sudoeste 9 Sudoeste 0 -- -- 84
2017-08-31 03:00:00 20.3 4 Sur 32 Oeste 0 -- -- 79
2017-08-31 02:00:00 18.9 7 Sudoeste 11 Sudoeste 0 -- -- 92
2017-08-31 01:00:00 19.1 6 Oeste 10 Norte 0 -- -- 91
2017-08-31 00:00:00 19.1 4 Oeste 9 Oeste 0 -- -- 91
2017-08-30 23:00:00 19 6 Oeste 9 Sudoeste 0 -- -- 91
2017-08-30 22:00:00 19.5 5 Noroeste 13 Sudoeste 0 -- -- 89
2017-08-30 21:00:00 20.9 0 Calma 6 Este 0 -- -- 84
2017-08-30 20:00:00 21.7 3 Nordeste 14 Sudeste 0 -- -- 79
2017-08-30 19:00:00 22.1 7 Este 20 Este 0 -- -- 80
2017-08-30 18:00:00 22.7 8 Sudeste 20 Sudeste 0 -- -- 77
2017-08-30 17:00:00 23.5 9 Este 28 Este 0 -- -- 72
2017-08-30 16:00:00 25.6 9 Este 24 Sudeste 0 -- -- 63
2017-08-30 15:00:00 25.1 9 Este 24 Sudeste 0 -- -- 66
2017-08-30 14:00:00 25.6 10 Este 23 Este 0 -- -- 66
2017-08-30 13:00:00 24.3 7 Este 18 Sudeste 0 -- -- 68
2017-08-30 12:00:00 23.1 9 Este 16 Este 0 -- -- 71
2017-08-30 11:00:00 20.4 3 Este 12 Sudoeste 0 -- -- 84
2017-08-30 10:00:00 18.7 6 Sudoeste 10 Oeste 0 -- -- 95
2017-08-30 09:00:00 17.9 4 Oeste 13 Oeste 0.2 -- -- 96
2017-08-30 08:00:00 17.4 5 Nordeste 15 Nordeste 2.4 -- -- 96
2017-08-30 07:00:00 17.3 3 Nordeste 16 Este 0.6 -- -- 93
2017-08-30 06:00:00 17.8 5 Noroeste 19 Oeste 0.2 -- -- 88
2017-08-30 05:00:00 18.5 9 Oeste 27 Noroeste 0.2 -- -- 80
2017-08-30 04:00:00 18.4 10 Oeste 17 Oeste 0.8 -- -- 86
2017-08-30 03:00:00 19.7 8 Oeste 29 Sur 0.8 -- -- 80
2017-08-30 02:00:00 21.8 9 Sudoeste 18 Sudoeste 0 -- -- 56
2017-08-30 01:00:00 21 10 Oeste 18 Oeste 0 -- -- 57
2017-08-30 00:00:00 21.1 5 Noroeste 16 Oeste 0 -- -- 57
2017-08-29 23:00:00 22.7 10 Oeste 36 Oeste 0 -- -- 54
2017-08-29 22:00:00 23 19 Oeste 31 Oeste 0 -- -- 54
2017-08-29 21:00:00 22.6 18 Oeste 36 Oeste 0 -- -- 59
2017-08-29 20:00:00 22.9 12 Oeste 22 Noroeste 0 -- -- 59
2017-08-29 19:00:00 22.1 10 Oeste 24 Noroeste 0 -- -- 74
2017-08-29 18:00:00 22 11 Oeste 18 Oeste 0.4 -- -- 79
2017-08-29 17:00:00 23.4 7 Sudeste 14 Sur 0 -- -- 80
2017-08-29 16:00:00 24.1 6 Sudeste 13 Sudeste 0 -- -- 75
2017-08-29 15:00:00 25.6 6 Este 23 Sudeste 0 -- -- 68
2017-08-29 14:00:00 27.5 3 Nordeste 12 Este 0 -- -- 48
2017-08-29 13:00:00 27.1 8 Este 17 Este 0 -- -- 60
2017-08-29 12:00:00 28.5 9 Sudoeste 19 Sudoeste 0 -- -- 53
2017-08-29 11:00:00 27.6 8 Oeste 14 Oeste 0 -- -- 57
2017-08-29 10:00:00 25.7 4 Este 8 Este 0 -- -- 63
2017-08-29 09:00:00 23.5 3 Oeste 14 Sudoeste 0 -- -- 71
2017-08-29 08:00:00 19.5 11 Oeste 31 Sudoeste 0 -- -- 86
2017-08-29 07:00:00 19.3 15 Oeste 28 Oeste 0 -- -- 86
2017-08-29 06:00:00 19.3 13 Oeste 33 Sudoeste 0 -- -- 88
2017-08-29 05:00:00 19.5 17 Sudoeste 28 Sudoeste 0 -- -- 88
2017-08-29 04:00:00 20.1 15 Sudoeste 31 Sudoeste 0 -- -- 86
2017-08-29 03:00:00 21.3 15 Oeste 29 Oeste 0 -- -- 82
2017-08-29 02:00:00 22.1 10 Oeste 21 Oeste 0 -- -- 81
2017-08-29 01:00:00 22.6 7 Oeste 13 Oeste 0 -- -- 85
2017-08-29 00:00:00 23.5 3 Este 11 Este 0 -- -- 90
2017-08-28 23:00:00 23.9 5 Este 17 Sudeste 0 -- -- 88
2017-08-28 22:00:00 24 4 Este 10 Oeste 0 -- -- 76
2017-08-28 21:00:00 24.7 4 Oeste 8 Este 0 -- -- 79
2017-08-28 20:00:00 25.4 6 Este 13 Este 0 -- -- 77
2017-08-28 19:00:00 26.3 7 Este 17 Sur 0 -- -- 73
2017-08-28 18:00:00 27.2 9 Sudeste 24 Sudeste 0 -- -- 69
2017-08-28 17:00:00 29 11 Sudeste 23 Sudeste 0 -- -- 63
2017-08-28 16:00:00 29.9 12 Sudeste 30 Sudeste 0 -- -- 62
2017-08-28 15:00:00 32.2 11 Este 26 Sudeste 0 -- -- 51
2017-08-28 14:00:00 32.7 11 Sudeste 26 Este 0 -- -- 50
2017-08-28 13:00:00 32.6 9 Sudeste 19 Sudeste 0 -- -- 45
2017-08-28 12:00:00 31.7 10 Este 24 Este 0 -- -- 45
2017-08-28 11:00:00 29.4 6 Este 13 Este 0 -- -- 50
2017-08-28 10:00:00 25.2 2 Sur 6 Sudeste 0 -- -- 65
2017-08-28 09:00:00 21.5 0 Calma 6 Oeste 0 -- -- 77
2017-08-28 08:00:00 18.5 0 Calma 4 Noroeste 0 -- -- 85
2017-08-28 07:00:00 18.6 4 Noroeste 12 Oeste 0 -- -- 79
2017-08-28 06:00:00 18.7 6 Oeste 10 Oeste 0 -- -- 76
2017-08-28 05:00:00 19.2 3 Norte 13 Oeste 0 -- -- 72
2017-08-28 04:00:00 19.1 6 Oeste 13 Oeste 0 -- -- 71
2017-08-28 03:00:00 19.3 3 Noroeste 11 Oeste 0 -- -- 77
2017-08-28 02:00:00 19.3 0 Calma 7 Sudoeste 0 -- -- 74
2017-08-28 01:00:00 21.1 6 Oeste 11 Oeste 0 -- -- 68
2017-08-28 00:00:00 23.1 5 Nordeste 17 Oeste 0 -- -- 61
2017-08-27 23:00:00 23.8 7 Sudoeste 31 Oeste 0 -- -- 60
2017-08-27 22:00:00 24 15 Oeste 45 Noroeste 0 -- -- 60
2017-08-27 21:00:00 25.5 24 Noroeste 51 Noroeste 0 -- -- 55
2017-08-27 20:00:00 25.8 28 Noroeste 48 Noroeste 0 -- -- 61
2017-08-27 19:00:00 26.4 13 Oeste 24 Noroeste 0 -- -- 59
2017-08-27 18:00:00 26.3 5 Este 17 Sudeste 0 -- -- 74
2017-08-27 17:00:00 27.3 10 Sudeste 22 Sudeste 0 -- -- 70
2017-08-27 16:00:00 29.5 9 Este 25 Sudeste 0 -- -- 65
2017-08-27 15:00:00 30.3 10 Este 23 Sudeste 0 -- -- 58
2017-08-27 14:00:00 30.7 10 Sudeste 24 Sudeste 0 -- -- 52
2017-08-27 13:00:00 29.1 9 Sudeste 17 Sudeste 0 -- -- 60
2017-08-27 12:00:00 26.7 6 Este 14 Sudeste 0 -- -- 69
2017-08-27 11:00:00 26.2 10 Sudeste 21 Este 0 -- -- 70
2017-08-27 10:00:00 25.2 5 Este 11 Este 0 -- -- 65
2017-08-27 09:00:00 22.1 4 Sudoeste 13 Oeste 0 -- -- 62
2017-08-27 08:00:00 19.3 3 Norte 12 Oeste 0 -- -- 72
2017-08-27 07:00:00 20 0 Calma 11 Sudoeste 0 -- -- 66
2017-08-27 06:00:00 20.7 9 Sudoeste 15 Sudoeste 0 -- -- 65
2017-08-27 05:00:00 19.6 10 Oeste 12 Oeste 0 -- -- 67
2017-08-27 04:00:00 20 7 Oeste 13 Oeste 0 -- -- 86
2017-08-27 03:00:00 20.4 8 Oeste 12 Oeste 0 -- -- 76
2017-08-27 02:00:00 21.6 5 Noroeste 10 Sudoeste 0 -- -- 71
2017-08-27 01:00:00 23.2 5 Sudoeste 19 Sudoeste 0 -- -- 60
2017-08-27 00:00:00 22.4 9 Oeste 18 Sudoeste 0 -- -- 61
2017-08-26 23:00:00 22.4 7 Oeste 14 Oeste 0 -- -- 71
2017-08-26 22:00:00 23 5 Sudeste 15 Sudoeste 0 -- -- 81
2017-08-26 21:00:00 23.7 8 Sudoeste 17 Oeste 0 -- -- 82
2017-08-26 20:00:00 24.2 3 Este 17 Sudeste 0 -- -- 82
2017-08-26 19:00:00 25.4 7 Este 19 Este 0 -- -- 73
2017-08-26 18:00:00 27.1 11 Sudeste 23 Sudeste 0 -- -- 71
2017-08-26 17:00:00 28.8 12 Sudeste 27 Sudeste 0 -- -- 65
2017-08-26 16:00:00 29.9 12 Sudeste 26 Sudeste 0 -- -- 59
2017-08-26 15:00:00 30.3 10 Sudeste 27 Este 0 -- -- 57
2017-08-26 14:00:00 30 10 Este 24 Sudeste 0 -- -- 55
2017-08-26 13:00:00 29.7 12 Este 26 Sudeste 0 -- -- 61
2017-08-26 12:00:00 28.7 8 Sudeste 21 Este 0 -- -- 54
2017-08-26 11:00:00 27 9 Este 18 Este 0 -- -- 65
2017-08-26 10:00:00 25.2 5 Este 13 Sudeste 0 -- -- 69
2017-08-26 09:00:00 22.4 0 Calma 8 Oeste 0 -- -- 83
2017-08-26 08:00:00 20 0 Calma 4 Norte 0 -- -- 91
2017-08-26 07:00:00 20.1 0 Calma 5 Este 0 -- -- 89
2017-08-26 06:00:00 20.5 3 Este 7 Este 0 -- -- 88
2017-08-26 05:00:00 20.1 2 Nordeste 6 Este 0 -- -- 89
2017-08-26 04:00:00 20.7 3 Este 6 Nordeste 0 -- -- 87
2017-08-26 03:00:00 20.5 2 Noroeste 6 Nordeste 0 -- -- 81
2017-08-26 02:00:00 21.2 0 Calma 15 Noroeste 0 -- -- 77
2017-08-26 01:00:00 20.7 5 Sudoeste 13 Sudoeste 0 -- -- 78
2017-08-26 00:00:00 20.3 0 Calma 9 Sudoeste 0 -- -- 82
2017-08-25 23:00:00 20.1 4 Noroeste 10 Sudoeste 0 -- -- 84
2017-08-25 22:00:00 20.6 5 Oeste 9 Oeste 0 -- -- 83
2017-08-25 21:00:00 22.5 4 Sur 9 Este 0 -- -- 77
2017-08-25 20:00:00 24.3 6 Este 20 Sudeste 0 -- -- 70
2017-08-25 19:00:00 26.4 9 Sudeste 24 Sudeste 0 -- -- 68
2017-08-25 18:00:00 27.2 13 Sudeste 27 Sudeste 0 -- -- 62
2017-08-25 17:00:00 28.2 8 Este 22 Este 0 -- -- 57
2017-08-25 16:00:00 29.3 10 Sudeste 25 Este 0 -- -- 54
2017-08-25 15:00:00 29.6 11 Este 25 Sudeste 0 -- -- 55
2017-08-25 14:00:00 28.7 12 Sudeste 23 Este 0 -- -- 56
2017-08-25 13:00:00 27.4 8 Este 20 Este 0 -- -- 63
2017-08-25 12:00:00 25.9 9 Este 21 Sudeste 0 -- -- 69
2017-08-25 11:00:00 24.9 9 Este 18 Este 0 -- -- 74
2017-08-25 10:00:00 23.7 6 Este 13 Este 0 -- -- 78
2017-08-25 09:00:00 21.9 4 Este 8 Este 0 -- -- 88
2017-08-25 08:00:00 18.7 2 Oeste 4 Sur 0 -- -- 97
2017-08-25 07:00:00 17.8 0 Calma 4 Noroeste 0 -- -- 95
2017-08-25 06:00:00 18 2 Noroeste 5 Noroeste 0 -- -- 95
2017-08-25 05:00:00 18.4 3 Noroeste 5 Noroeste 0 -- -- 93
2017-08-25 04:00:00 19 3 Noroeste 5 Oeste 0 -- -- 92
2017-08-25 03:00:00 19.7 2 Noroeste 4 Noroeste 0 -- -- 90
2017-08-25 02:00:00 20 0 Calma 5 Sudeste 0 -- -- 89
2017-08-25 01:00:00 20.5 0 Calma 6 Este 0 -- -- 87
2017-08-25 00:00:00 20.5 3 Sudeste 6 Este 0 -- -- 86
2017-08-24 23:00:00 20.7 4 Este 7 Nordeste 0 -- -- 85
2017-08-24 22:00:00 21.5 4 Sudeste 10 Norte 0 -- -- 81
2017-08-24 21:00:00 22.8 4 Nordeste 9 Este 0 -- -- 71
2017-08-24 20:00:00 25.2 5 Este 15 Este 0 -- -- 59
2017-08-24 19:00:00 26.9 8 Este 20 Este 0 -- -- 49
2017-08-24 18:00:00 28.5 9 Este 22 Sudeste 0 -- -- 47
2017-08-24 17:00:00 29.8 10 Sudeste 23 Este 0 -- -- 36
2017-08-24 16:00:00 30.5 9 Este 25 Sudeste 0 -- -- 36
2017-08-24 15:00:00 30.2 11 Este 25 Este 0 -- -- 41
2017-08-24 14:00:00 28.9 10 Este 24 Sudeste 0 -- -- 48
2017-08-24 13:00:00 28 10 Este 21 Este 0 -- -- 58
2017-08-24 12:00:00 27.3 8 Sudeste 19 Sudeste 0 -- -- 61
2017-08-24 11:00:00 26.5 7 Este 18 Nordeste 0 -- -- 64
2017-08-24 10:00:00 24.8 7 Este 13 Este 0 -- -- 65
2017-08-24 09:00:00 21.8 3 Nordeste 7 Este 0 -- -- 74
2017-08-24 08:00:00 18.5 4 Oeste 11 Oeste 0 -- -- 90
2017-08-24 07:00:00 18.3 5 Sudoeste 11 Oeste 0 -- -- 88
2017-08-24 06:00:00 19.6 6 Oeste 13 Nordeste 0 -- -- 83
2017-08-24 05:00:00 20.9 6 Sudeste 20 Oeste 0 -- -- 76
2017-08-24 04:00:00 21.8 13 Noroeste 41 Oeste 0.4 -- -- 72
2017-08-24 03:00:00 20.3 12 Oeste 21 Oeste 0.4 -- -- 76
2017-08-24 02:00:00 19.2 4 Oeste 10 Oeste 0 -- -- 93
2017-08-24 01:00:00 19.4 4 Oeste 12 Oeste 0 -- -- 92
2017-08-24 00:00:00 20.5 5 Oeste 10 Sudoeste 0 -- -- 92
2017-08-23 23:00:00 21.4 2 Este 7 Nordeste 0 -- -- 92
2017-08-23 22:00:00 21.6 3 Este 9 Este 0 -- -- 91
2017-08-23 21:00:00 22 3 Norte 8 Nordeste 0 -- -- 89
2017-08-23 20:00:00 22.9 3 Este 8 Nordeste 0 -- -- 86
2017-08-23 19:00:00 23.2 5 Sudeste 11 Este 0 -- -- 86
2017-08-23 18:00:00 24.1 4 Este 19 Este 1.2 -- -- 86
2017-08-23 17:00:00 26.6 11 Sudeste 22 Sudeste 0 -- -- 63
2017-08-23 16:00:00 28.3 9 Sudeste 29 Este 0 -- -- 53
2017-08-23 15:00:00 28.4 11 Este 27 Sudeste 0 -- -- 56
2017-08-23 14:00:00 29.2 11 Este 23 Este 0 -- -- 57
2017-08-23 13:00:00 27.6 8 Este 23 Este 0 -- -- 61
2017-08-23 12:00:00 26.8 9 Este 19 Este 0 -- -- 64
2017-08-23 11:00:00 25.4 8 Este 15 Este 0 -- -- 68
2017-08-23 10:00:00 22.8 6 Este 13 Sudeste 0 -- -- 83
2017-08-23 09:00:00 20.2 0 Calma 6 Oeste 0 -- -- 95
2017-08-23 08:00:00 18 3 Oeste 10 Oeste 0 -- -- 96
2017-08-23 07:00:00 17.6 4 Noroeste 6 Oeste 0 -- -- 95
2017-08-23 06:00:00 18 4 Oeste 8 Sudoeste 0 -- -- 94
2017-08-23 05:00:00 18.6 2 Oeste 8 Oeste 0 -- -- 93
2017-08-23 04:00:00 18.9 3 Oeste 8 Oeste 0 -- -- 89
2017-08-23 03:00:00 19.9 4 Sur 9 Norte 0 -- -- 85
2017-08-23 02:00:00 18.6 3 Este 14 Sudoeste 0 -- -- 84
2017-08-23 01:00:00 18.4 9 Oeste 12 Sudoeste 0 -- -- 88
2017-08-23 00:00:00 19 9 Oeste 13 Oeste 0 -- -- 91
2017-08-22 23:00:00 19.6 0 Calma 6 Oeste 0 -- -- 89
2017-08-22 22:00:00 21 2 Este 7 Nordeste 0 -- -- 85
2017-08-22 21:00:00 22.3 4 Este 13 Sudeste 0 -- -- 84
2017-08-22 20:00:00 23.9 6 Este 15 Sudeste 0 -- -- 77
2017-08-22 19:00:00 25.2 7 Sudeste 17 Sudeste 0 -- -- 72
2017-08-22 18:00:00 -- -- -- -- -- -- -- -- --
2017-08-22 17:00:00 -- -- -- -- -- -- -- -- --
2017-08-22 16:00:00 29.1 11 Sudeste 22 Sudeste 0 -- -- 60
2017-08-22 15:00:00 29.4 12 Sudeste 25 Sudeste 0 -- -- 61
2017-08-22 14:00:00 29.5 10 Sudeste 24 Sudeste 0 -- -- 60
2017-08-22 13:00:00 28.9 11 Sudeste 23 Este 0 -- -- 61
2017-08-22 12:00:00 27.9 9 Este 21 Este 0 -- -- 63
2017-08-22 11:00:00 26.9 8 Este 17 Este 0 -- -- 64
2017-08-22 10:00:00 25 4 Este 12 Este 0 -- -- 73
2017-08-22 09:00:00 22 0 Calma 5 Oeste 0 -- -- 82
2017-08-22 08:00:00 17.1 3 Oeste 10 Sudoeste 0 -- -- 96
2017-08-22 07:00:00 17 5 Oeste 12 Oeste 0 -- -- 93
2017-08-22 06:00:00 18.2 9 Oeste 12 Oeste 0 -- -- 95
2017-08-22 05:00:00 18.2 4 Oeste 10 Oeste 0 -- -- 93
2017-08-22 04:00:00 19.1 4 Oeste 8 Sudoeste 0 -- -- 91
2017-08-22 03:00:00 19.7 5 Oeste 7 Oeste 0 -- -- 93
2017-08-22 02:00:00 19.9 4 Sudoeste 5 Sudoeste 0 -- -- 89
2017-08-22 01:00:00 21.1 0 Calma 5 Oeste 0 -- -- 90
2017-08-22 00:00:00 21.2 2 Sur 5 Nordeste 0 -- -- 87